LES MASIES DE RODA (Osona)





Hora UTC 18:10
Temperatura 24.1 ºC
Sòl 15 cm 21.1 ºC
Subsòl 10 cm 22.6 ºC
Humitat 67.2 %
Pressió 1018.5 hPa
Pluja 0.4 mm
Velocitat vent 1.1 km/h
Direcció vent SW
Radiació solar 0.1 W/m²

Dades diàries 2023-09-28



Hora UTC (hivern +1h; estiu +2h)
Temperatura (ºC) Humitat (%) Pressió (hPa) Velocitat vent (km/h) Precipitació (mm) Radiació solar (W/m²)
Hora UTC Aire Sòl 15 cm Subsòl 10 cm Humitat Pressió Vel. Dir. Vel. Max Dir. Intent. màx 5 min. Rad. Sol.
00:05 14.9 12.6 19.1 91.1 1019.7 0.0 NNE 0.0 NNW 0.0 0.1
00:10 15.1 12.8 19.0 92.3 1019.5 0.7 S 3.2 SSE 0.0 0.1
00:15 14.8 12.8 19.0 91.4 1019.4 0.0 NNE 0.0 S 0.0 0.1
00:20 14.6 12.7 19.0 91.7 1019.5 0.9 S 3.2 S 0.0 0.1
00:25 14.4 12.6 18.9 92.0 1019.5 2.6 SSE 3.5 N 0.0 0.1
00:30 14.4 12.6 18.9 92.8 1019.5 3.1 N 4.2 N 0.0 0.1
00:35 14.4 12.5 18.8 93.1 1019.6 3.1 N 4.2 N 0.0 0.1
00:40 14.4 12.4 18.8 92.8 1019.6 1.1 N 3.9 N 0.0 0.1
00:45 14.4 12.2 18.8 93.0 1019.5 0.6 E 2.1 E 0.0 0.1
00:50 14.4 12.3 18.7 93.1 1019.6 0.9 ENE 2.8 ENE 0.0 0.1
00:55 14.4 12.2 18.7 93.0 1019.6 1.2 SE 3.2 SSE 0.0 0.1
01:00 14.3 12.3 18.7 92.5 1019.6 0.4 SE 2.5 SE 0.0 0.1
01:05 14.0 12.1 18.6 92.2 1019.6 0.0 NNE 0.0 SE 0.0 0.2
01:10 13.9 12.0 18.6 92.3 1019.6 0.0 NNE 0.0 SE 0.0 0.1
01:15 13.8 11.7 18.6 92.4 1019.6 0.0 NNE 0.0 SE 0.0 0.1
01:20 13.8 11.6 18.5 93.1 1019.6 2.1 SE 3.9 SE 0.0 0.1
01:25 13.8 11.6 18.5 92.9 1019.5 0.9 SSW 2.8 S 0.0 0.1
01:30 13.8 11.6 18.5 93.3 1019.5 0.0 NNE 0.0 SSW 0.0 0.1
01:35 13.9 11.9 18.4 93.0 1019.5 0.0 NNE 0.0 SSW 0.0 0.1
01:40 13.6 11.6 18.4 92.0 1019.5 0.0 NNE 0.0 SSW 0.0 0.1
01:45 13.4 11.6 18.4 93.3 1019.4 0.1 SSW 1.8 SSW 0.0 0.1
01:50 13.4 11.5 18.3 93.3 1019.3 0.0 NNE 0.0 SSW 0.0 0.1
01:55 13.2 11.3 18.3 93.1 1019.3 0.7 SSW 1.8 SSW 0.0 0.1
02:00 13.0 11.0 18.3 92.5 1019.4 1.2 WNW 2.5 N 0.0 0.1
02:05 12.8 10.8 18.2 92.8 1019.4 0.2 N 2.1 N 0.0 0.1
02:10 12.9 10.8 18.2 94.0 1019.5 2.0 N 3.2 NNW 0.0 0.1
02:15 12.8 10.7 18.2 93.7 1019.5 1.0 NNW 3.2 NNW 0.0 0.1
02:20 12.8 10.7 18.1 94.1 1019.6 0.0 NNE 0.0 NNW 0.0 0.1
02:25 13.0 10.8 18.1 94.7 1019.6 0.0 NNE 0.0 NNW 0.0 0.1
02:30 12.9 10.9 18.1 94.2 1019.6 0.0 NNE 0.0 NNW 0.0 0.1
02:35 13.0 10.7 18.0 94.8 1019.5 1.9 ESE 3.2 SE 0.0 0.1
02:40 13.2 10.8 18.0 94.8 1019.4 3.0 SSE 3.9 SSE 0.0 0.1
02:45 13.2 11.0 18.0 94.0 1019.4 1.9 SE 4.2 SSE 0.0 0.1
02:50 13.0 11.1 17.9 92.9 1019.4 1.1 ESE 3.5 E 0.0 0.1
02:55 13.0 11.0 17.9 93.2 1019.3 2.2 E 3.2 ESE 0.0 0.1
03:00 12.9 11.0 17.9 93.1 1019.3 1.1 ENE 2.5 ENE 0.0 0.1
03:05 12.7 11.0 17.9 93.2 1019.2 0.0 NNE 0.0 NE 0.0 0.1
03:10 12.6 10.9 17.9 93.3 1019.3 0.0 NNE 0.0 NE 0.0 0.1
03:15 12.5 10.7 17.8 93.7 1019.3 0.0 NNE 0.0 NE 0.0 0.1
03:20 12.4 10.5 17.8 93.5 1019.3 0.0 NNE 0.0 NE 0.0 0.1
03:25 12.4 10.4 17.8 94.2 1019.3 0.0 NNE 0.0 N 0.0 0.1
03:30 12.5 10.5 17.7 94.6 1019.4 0.0 NNE 0.0 N 0.0 0.1
03:35 12.4 10.5 17.7 94.4 1019.4 0.0 NNE 0.0 N 0.0 0.1
03:40 12.3 10.2 17.7 94.2 1019.4 0.0 NNE 0.0 N 0.0 0.1
03:45 12.3 10.2 17.6 94.3 1019.5 0.0 NNE 0.0 N 0.0 0.1
03:50 12.2 10.1 17.6 94.1 1019.5 0.0 NNE 0.0 N 0.0 0.1
03:55 12.1 10.1 17.6 94.0 1019.5 0.0 NNE 0.0 N 0.0 0.1
04:00 12.1 10.0 17.5 94.5 1019.6 0.0 NNE 0.0 N 0.0 0.1
04:05 12.0 10.2 17.5 94.1 1019.6 0.0 NNE 0.0 N 0.0 0.1
04:10 11.8 9.9 17.4 93.7 1019.6 1.0 N 2.5 N 0.0 0.1
04:15 11.8 9.9 17.4 94.2 1019.6 0.7 SSE 2.5 N 0.0 0.1
04:20 11.8 10.0 17.4 94.3 1019.7 0.0 NNE 0.0 SSE 0.0 0.1
04:25 11.8 10.0 17.3 94.4 1019.7 0.8 N 2.8 0.0 0.1
04:30 11.7 10.0 17.3 94.3 1019.7 0.0 NNE 0.0 0.0 0.1
04:35 11.6 9.8 17.3 94.2 1019.6 0.0 NNE 0.0 0.0 0.1
04:40 11.5 9.7 17.3 94.3 1019.7 0.0 NNE 0.0 0.0 0.1
04:45 11.5 9.8 17.2 94.4 1019.8 0.0 NNE 0.0 0.0 0.1
04:50 11.4 9.7 17.2 94.3 1019.8 0.0 NNE 0.0 0.0 0.1
04:55 11.4 9.5 17.2 94.5 1019.8 0.0 NNE 0.0 0.0 0.1
05:00 11.4 9.6 17.1 94.8 1019.8 0.0 NNE 0.0 0.0 0.1
05:05 11.5 9.7 17.1 94.8 1019.8 0.0 NNE 0.0 0.0 0.1
05:10 11.5 9.8 17.1 94.7 1019.8 0.0 NNE 0.0 0.0 0.1
05:15 11.4 9.8 17.0 94.6 1019.9 0.0 NNE 0.0 0.0 0.1
05:20 11.2 9.7 17.0 94.1 1019.9 1.2 N 3.5 0.0 0.1
05:25 11.3 9.7 17.0 94.7 1019.9 0.0 NNE 0.0 N 0.0 0.1
05:30 11.4 9.7 17.0 95.0 1019.9 0.0 NNE 0.0 N 0.0 0.3
05:35 11.3 9.9 16.9 94.8 1019.9 0.0 NNE 0.0 N 0.0 0.7
05:40 11.2 9.8 16.9 94.5 1019.9 0.0 NNE 0.0 N 0.0 1.5
05:45 11.2 9.7 16.9 94.6 1020.0 0.0 NNE 0.0 N 0.0 4.6
05:50 11.2 10.0 16.9 94.8 1020.0 0.0 NNE 0.0 N 0.0 6.7
05:55 11.3 9.8 16.9 94.8 1020.0 0.0 NNE 0.0 N 0.0 12.6
06:00 11.2 9.8 16.8 94.7 1020.1 0.0 NNE 0.0 N 0.0 16.8
06:05 11.4 10.1 16.8 95.0 1020.1 1.4 ESE 3.2 ESE 0.0 25.4
06:10 11.5 10.3 16.8 95.0 1020.1 2.1 ESE 3.5 ESE 0.0 34.0
06:15 11.6 10.5 16.8 95.0 1020.1 0.4 E 2.5 ESE 0.0 37.2
06:20 11.6 10.7 16.8 94.8 1020.1 0.0 ENE 1.4 ENE 0.0 41.2
06:25 11.7 10.8 16.8 94.7 1020.1 0.0 NNE 0.0 N 0.0 44.6
06:30 11.8 10.9 16.8 94.7 1020.1 0.0 NNE 0.0 N 0.0 49.7
06:35 11.9 11.0 16.8 94.8 1020.1 0.0 NNE 0.0 N 0.0 58.5
06:40 12.1 11.3 16.8 94.8 1020.1 0.0 NNE 0.0 N 0.0 72.6
06:45 12.3 11.7 16.8 94.8 1020.1 0.0 NNE 0.0 0.0 88.9
06:50 12.6 12.1 16.8 94.8 1020.1 0.0 NNE 0.0 0.0 119.9
06:55 13.0 12.7 16.8 94.5 1020.2 0.0 NNE 0.0 0.0 143.5
07:00 13.3 13.0 16.9 94.1 1020.2 0.0 NNE 0.0 NNW 0.0 137.1
07:05 13.6 13.3 16.9 93.3 1020.2 0.0 NNE 0.0 NW 0.0 169.9
07:10 13.9 13.6 17.0 91.9 1020.2 1.3 NW 3.5 NW 0.0 171.9
07:15 14.1 13.9 17.0 91.1 1020.2 2.4 NW 3.2 NNW 0.0 153.6
07:20 14.3 13.9 17.1 90.1 1020.3 1.3 NW 2.8 WNW 0.0 158.9
07:25 14.7 14.2 17.1 89.7 1020.3 1.7 W 3.2 W 0.0 172.2
07:30 14.9 14.1 17.2 87.6 1020.3 0.1 SW 2.1 SW 0.0 172.0
07:35 15.1 14.5 17.2 87.6 1020.4 0.0 NNE 0.0 NNE 0.0 164.0
07:40 15.4 14.7 17.3 86.2 1020.3 2.2 SSW 4.2 SW 0.0 154.6
07:45 15.7 15.2 17.3 85.7 1020.3 2.8 SW 4.2 SW 0.0 231.1
07:50 16.1 15.7 17.4 84.8 1020.4 2.0 SSW 4.2 SSW 0.0 229.8
07:55 16.4 16.0 17.5 84.1 1020.4 1.8 WSW 3.5 W 0.0 235.0
08:00 16.5 16.4 17.6 83.5 1020.4 2.1 SW 4.2 SSW 0.0 211.6
08:05 16.5 16.3 17.7 82.4 1020.4 3.0 SSW 4.2 SW 0.0 193.8
08:10 16.6 16.6 17.7 82.2 1020.4 3.0 S 4.6 SSE 0.0 225.4
08:15 16.8 17.0 17.8 83.2 1020.4 0.9 WNW 3.5 WNW 0.0 257.0
08:20 17.0 17.4 17.8 82.3 1020.4 3.2 SSW 6.4 S 0.0 282.6
08:25 17.4 17.8 17.9 80.0 1020.4 3.2 SW 6.7 SW 0.0 294.6
08:30 17.7 18.3 17.9 80.2 1020.5 3.1 SW 6.7 SSW 0.0 317.6
08:35 18.0 18.9 18.0 78.4 1020.5 3.3 SW 5.7 SW 0.0 299.4
08:40 18.2 19.2 18.2 78.6 1020.5 2.9 W 6.0 WSW 0.0 308.2
08:45 18.1 19.6 18.3 79.1 1020.5 3.1 WNW 5.3 W 0.0 355.1
08:50 18.2 20.3 18.4 79.2 1020.5 3.7 W 6.7 WNW 0.0 367.4
08:55 18.6 21.0 18.5 78.0 1020.6 0.8 W 2.8 W 0.0 419.6
09:00 19.1 21.6 18.5 76.4 1020.5 2.6 W 5.0 WNW 0.0 420.7
09:05 19.3 22.0 18.6 75.2 1020.6 2.7 WNW 4.2 N 0.0 482.5
09:10 20.0 22.4 18.7 72.1 1020.6 0.9 WSW 3.2 SW 0.0 463.1
09:15 20.1 23.4 18.8 71.3 1020.6 1.0 NNE 3.9 NNE 0.0 502.0
09:20 20.3 24.2 19.0 71.1 1020.5 2.3 WNW 4.6 NW 0.0 518.4
09:25 20.7 24.5 19.1 69.4 1020.5 0.8 WSW 3.2 WSW 0.0 527.7
09:30 21.2 24.9 19.2 67.9 1020.5 2.1 NNW 4.6 WNW 0.0 549.5
09:35 21.4 25.8 19.4 67.4 1020.4 1.5 SSE 3.9 NNW 0.0 561.4
09:40 21.8 25.7 19.5 65.6 1020.3 2.3 WSW 5.0 W 0.0 572.5
09:45 22.1 26.1 19.6 64.7 1020.3 3.6 W 6.7 W 0.0 575.1
09:50 22.0 26.2 19.8 64.6 1020.2 0.7 WSW 6.4 WNW 0.0 586.1
09:55 22.0 26.8 19.9 65.1 1020.2 3.9 WNW 6.0 WNW 0.0 604.6
10:00 22.8 27.5 20.0 63.0 1020.1 3.4 W 6.7 W 0.0 611.2
10:05 23.3 27.9 20.1 59.3 1020.1 3.7 WNW 6.0 W 0.0 610.3
10:10 23.4 28.6 20.3 59.1 1020.1 1.8 W 6.4 WNW 0.0 603.6
10:15 24.4 28.9 20.4 56.9 1020.1 2.5 W 4.6 W 0.0 617.7
10:20 24.6 29.0 20.6 55.3 1020.0 3.1 W 6.0 WSW 0.0 629.1
10:25 24.7 30.2 20.8 53.9 1020.0 1.2 SE 4.6 W 0.0 648.0
10:30 25.1 30.6 20.9 53.5 1019.9 1.7 SSW 3.9 SE 0.0 652.0
10:35 25.2 31.1 21.1 51.4 1019.8 2.2 SE 5.0 SSE 0.0 663.6
10:40 24.9 32.1 21.2 50.9 1019.7 4.3 ENE 6.7 NE 0.0 659.6
10:45 24.7 32.6 21.3 51.2 1019.7 2.9 ENE 6.4 NE 0.0 626.9
10:50 25.1 32.1 21.4 51.3 1019.6 2.0 WNW 5.7 NE 0.0 665.2
10:55 25.9 31.6 21.5 48.4 1019.6 3.9 NW 6.7 NNW 0.0 681.1
11:00 26.2 32.0 21.6 47.2 1019.5 4.1 NW 7.1 WNW 0.0 685.3
11:05 26.4 31.8 21.7 46.1 1019.5 3.5 WSW 6.4 NW 0.0 688.5
11:10 27.0 32.0 21.9 44.0 1019.4 3.2 SW 6.0 SSW 0.0 691.3
11:15 27.5 32.8 22.0 43.9 1019.3 3.4 W 6.7 SSW 0.0 694.6
11:20 27.9 33.1 22.2 42.2 1019.2 4.2 SSW 7.1 S 0.0 698.4
11:25 28.0 33.8 22.3 41.8 1019.1 2.8 NNW 6.0 NW 0.0 701.6
11:30 27.9 34.2 22.4 43.1 1019.1 2.7 NNE 5.7 N 0.0 698.6
11:35 28.4 34.1 22.5 40.6 1019.0 2.8 SW 6.7 SSW 0.0 691.4
11:40 28.0 35.4 22.6 40.9 1019.0 1.4 NE 3.2 NNE 0.0 704.3
11:45 28.4 35.5 22.7 41.8 1018.9 3.5 NNW 8.5 NNW 0.0 704.7
11:50 28.2 34.9 22.7 42.0 1018.8 7.4 NW 11.0 NW 0.0 703.2
11:55 27.9 34.8 22.8 41.6 1018.8 2.4 NE 6.0 NNW 0.0 702.4
12:00 28.4 34.5 22.9 41.1 1018.7 4.2 W 10.6 W 0.0 702.8
12:05 28.9 34.6 22.9 39.7 1018.6 5.4 W 8.8 W 0.0 702.9
12:10 29.2 35.6 23.1 38.9 1018.6 3.3 WNW 6.4 W 0.0 704.2
12:15 29.7 35.5 23.2 37.8 1018.5 2.5 SSW 6.0 SE 0.0 701.9
12:20 29.8 36.3 23.3 38.5 1018.4 5.2 NW 10.3 WNW 0.0 697.1
12:25 29.5 36.3 23.4 38.3 1018.4 5.3 NNW 9.5 NNW 0.0 694.3
12:30 29.3 36.5 23.5 38.8 1018.4 2.8 N 6.7 NNE 0.0 690.3
12:35 29.9 36.9 23.5 39.2 1018.3 3.9 WNW 8.1 WNW 0.0 686.6
12:40 30.6 36.7 23.6 36.9 1018.2 3.4 SW 5.7 WNW 0.0 682.0
12:45 30.4 36.8 23.7 36.7 1018.1 4.5 N 6.7 NNW 0.0 675.3
12:50 30.1 37.1 23.8 37.3 1018.1 3.7 N 7.4 NW 0.0 672.5
12:55 30.1 36.6 24.0 37.1 1018.0 7.8 SW 18.0 NW 0.0 665.4
13:00 30.1 35.8 24.0 36.5 1018.0 7.8 NNW 15.5 NW 0.0 654.1
13:05 30.2 36.3 24.0 37.7 1017.9 7.1 NW 11.7 NNW 0.0 641.9
13:10 30.7 36.0 24.0 35.9 1017.9 6.0 W 12.0 WSW 0.0 644.4
13:15 30.9 35.7 24.0 30.7 1017.8 10.4 W 18.4 WSW 0.0 643.0
13:20 30.9 35.4 24.1 32.9 1017.8 8.6 WSW 14.1 WSW 0.0 634.8
13:25 31.1 36.3 24.2 31.4 1017.8 9.8 WNW 25.4 NW 0.0 639.3
13:30 31.2 35.9 24.2 30.8 1017.8 11.1 W 22.2 W 0.0 633.2
13:35 31.0 35.1 24.2 30.3 1017.8 13.1 WSW 20.8 SW 0.0 572.6
13:40 31.0 35.2 24.3 30.2 1017.8 10.9 WSW 24.4 WSW 0.0 609.8
13:45 31.2 35.6 24.3 29.9 1017.8 12.2 W 19.1 WNW 0.0 609.9
13:50 31.1 35.9 24.3 30.3 1017.7 10.3 W 19.4 WSW 0.0 600.4
13:55 31.2 36.2 24.3 30.5 1017.7 7.1 W 13.8 W 0.0 591.3
14:00 31.4 36.2 24.4 30.5 1017.6 10.3 SW 20.5 WSW 0.0 579.9
14:05 31.3 35.8 24.4 30.9 1017.6 11.9 W 21.9 WNW 0.0 568.8
14:10 31.2 35.8 24.4 31.4 1017.6 11.0 W 19.1 W 0.0 560.0
14:15 31.3 36.4 24.4 34.1 1017.5 10.1 W 20.5 SW 0.0 549.6
14:20 31.3 35.8 24.4 34.8 1017.6 10.7 W 19.1 WSW 0.0 450.8
14:25 31.0 35.6 24.4 36.5 1017.6 9.9 W 19.1 W 0.0 524.0
14:30 31.1 36.5 24.5 35.9 1017.5 5.3 W 14.8 NW 0.0 512.5
14:35 31.0 36.0 24.5 35.2 1017.5 10.1 W 17.3 WSW 0.0 496.2
14:40 31.0 35.5 24.5 36.5 1017.5 7.7 WSW 13.8 SW 0.0 460.5
14:45 31.1 35.1 24.5 37.4 1017.5 10.1 SW 21.2 SW 0.0 455.0
14:50 30.7 34.0 24.6 38.3 1017.4 10.6 SW 19.1 SSW 0.0 418.3
14:55 30.7 34.6 24.6 39.1 1017.4 6.7 SW 16.2 SW 0.0 416.3
15:00 30.5 34.2 24.6 38.4 1017.4 11.1 SW 18.7 SSW 0.0 384.6
15:05 30.2 32.9 24.6 39.5 1017.4 12.8 SW 23.7 WSW 0.0 370.8
15:10 29.8 32.0 24.6 40.6 1017.4 12.9 SSW 21.5 SSW 0.0 328.9
15:15 29.6 31.6 24.6 41.2 1017.4 11.8 SSW 19.4 SW 0.0 333.4
15:20 29.7 32.0 24.5 42.2 1017.3 11.1 SW 21.5 SW 0.0 340.4
15:25 29.6 31.5 24.4 42.2 1017.4 12.6 SW 21.9 SSW 0.0 297.6
15:30 29.3 31.1 24.3 43.8 1017.4 11.7 SW 19.8 WSW 0.0 271.3
15:35 29.0 30.6 24.3 44.9 1017.5 11.7 SSW 23.7 SW 0.0 274.7
15:40 28.9 30.7 24.3 46.5 1017.5 15.6 SSW 25.4 SSW 0.0 322.4
15:45 29.0 31.3 24.2 47.2 1017.5 11.0 SW 18.7 WSW 0.0 314.5
15:50 28.8 30.8 24.2 47.6 1017.5 13.5 SSW 21.9 SSW 0.0 284.4
15:55 28.8 30.8 24.1 48.8 1017.5 11.8 SW 19.8 WSW 0.0 268.8
16:00 28.5 30.1 24.1 50.2 1017.5 15.2 SW 23.7 SSW 0.0 247.4
16:05 28.1 29.5 24.0 51.8 1017.5 12.6 SW 21.9 SSW 0.0 229.2
16:10 28.1 29.5 24.0 52.3 1017.5 11.7 SSW 20.1 SSW 0.0 220.8
16:15 27.9 29.3 23.9 52.9 1017.5 12.7 SSW 20.1 SSW 0.0 224.4
16:20 27.8 29.2 23.9 54.4 1017.6 12.6 SSW 22.2 SSW 0.0 216.1
16:25 27.8 29.3 23.8 54.7 1017.6 9.2 SW 14.8 SW 0.0 198.2
16:30 27.9 28.8 23.8 54.7 1017.6 10.5 SW 18.0 SW 0.0 179.6
16:35 27.7 28.2 23.7 55.0 1017.6 11.4 SW 20.5 SW 0.0 164.2
16:40 27.6 27.9 23.7 56.0 1017.6 9.2 SW 15.9 S 0.0 149.5
16:45 27.5 27.1 23.6 56.5 1017.6 10.7 SSW 20.8 SSW 0.0 133.5
16:50 27.2 26.4 23.6 57.5 1017.6 10.8 SW 19.1 SSW 0.0 117.7
16:55 27.1 25.9 23.5 58.3 1017.7 6.1 SW 11.0 SW 0.4 102.0
17:00 26.9 25.5 23.5 58.4 1017.7 10.6 SW 21.5 SSW 0.0 87.9
17:05 26.6 25.0 23.4 59.3 1017.7 12.9 SW 20.8 SW 0.0 75.6
17:10 26.4 24.7 23.3 60.1 1017.7 12.0 WSW 19.1 WSW 0.0 62.9
17:15 26.1 24.3 23.3 60.7 1017.7 9.3 SW 16.6 SW 0.0 49.4
17:20 25.9 24.0 23.2 61.5 1017.8 6.8 SW 12.7 SSW 0.0 37.2
17:25 25.7 23.7 23.2 62.3 1017.9 6.5 SW 13.4 SSW 0.0 17.9
17:30 25.5 23.5 23.1 62.7 1017.9 6.4 SW 11.3 SW 0.0 11.1
17:35 25.3 23.3 23.0 62.6 1017.9 9.3 SSW 15.2 SSW 0.0 8.0
17:40 25.1 23.1 23.0 62.9 1018.0 8.6 SSW 14.8 SSW 0.0 5.1
17:45 25.0 23.0 22.9 63.2 1018.1 8.4 SSW 12.4 SSW 0.0 3.1
17:50 24.9 22.8 22.8 63.6 1018.2 6.1 SW 11.3 SSW 0.0 1.7
17:55 24.6 22.2 22.8 64.6 1018.3 3.2 WSW 6.7 WSW 0.0 0.9
18:00 24.4 21.8 22.7 65.4 1018.4 3.1 WSW 8.1 WSW 0.0 0.3
18:05 24.3 21.4 22.6 66.4 1018.5 0.9 W 4.2 WSW 0.0 0.2
18:10 24.1 21.1 22.6 67.2 1018.5 1.1 SW 6.7 SW 0.0 0.1
Màxima 31.5 37.1 24.6 95.0 1020.6 15.6 SSW 25.4 SSW 0.4 704.7
Mínima 11.2 9.5 16.8 29.9 1017.3
Total 0.4